Time;durP1;ratioP1;P1;durP2;ratioP2;P2;SDS_P1;SDS_P2;PMS_P1;PMS_P2;Temp;Humidity;BMP_temperature;BMP_pressure;BME280_temperature;BME280_humidity;BME280_pressure;Samples;Min_cycle;Max_cycle;Signal;HPM_P1;HPM_P2
2021/05/11 00:00:25;;;;;;;1999.90;999.90;;;12.90;99.90;;;;;;5052079;28;20223;-58
2021/05/11 00:02:51;;;;;;;1999.90;999.90;;;12.90;99.90;;;;;;5054073;28;20162;-58
2021/05/11 00:05:18;;;;;;;1999.90;999.90;;;12.80;99.90;;;;;;5055771;28;20177;-60
2021/05/11 00:07:45;;;;;;;1999.90;999.90;;;12.80;99.90;;;;;;5055767;28;20651;-52
2021/05/11 00:10:13;;;;;;;1999.90;999.90;;;12.70;99.90;;;;;;5055575;28;20200;-59
2021/05/11 00:12:40;;;;;;;1999.90;999.90;;;12.70;99.90;;;;;;5055717;28;20197;-43
2021/05/11 00:15:07;;;;;;;1999.90;999.90;;;12.60;99.90;;;;;;5055802;28;20176;-59
2021/05/11 00:17:34;;;;;;;1999.90;999.90;;;12.60;99.90;;;;;;5055717;28;20682;-59
2021/05/11 00:20:01;;;;;;;1999.90;999.90;;;12.60;99.90;;;;;;5055448;28;20173;-59
2021/05/11 00:22:28;;;;;;;1999.90;999.90;;;12.60;99.90;;;;;;5055502;28;20181;-59
2021/05/11 00:24:55;;;;;;;1999.90;999.90;;;12.60;99.90;;;;;;5055505;28;20498;-60
2021/05/11 00:27:22;;;;;;;1999.90;999.90;;;12.50;99.90;;;;;;5055200;28;20212;-58
2021/05/11 00:29:48;;;;;;;1999.90;999.90;;;12.60;99.90;;;;;;5055477;28;20165;-59
2021/05/11 00:32:15;;;;;;;1999.90;999.90;;;12.50;99.90;;;;;;5055313;28;20577;-45
2021/05/11 00:34:42;;;;;;;1999.90;999.90;;;12.40;99.90;;;;;;5055251;28;20169;-56
2021/05/11 00:37:09;;;;;;;1999.90;999.90;;;12.40;99.90;;;;;;5055359;28;20180;-51
2021/05/11 00:39:36;;;;;;;1999.90;999.90;;;12.40;99.90;;;;;;5055296;28;20165;-57
2021/05/11 00:42:03;;;;;;;1999.90;999.90;;;12.40;99.90;;;;;;5055080;28;20663;-57
2021/05/11 00:44:30;;;;;;;1999.90;999.90;;;12.50;99.90;;;;;;5055092;28;20226;-58
2021/05/11 00:46:59;;;;;;;1999.90;999.90;;;12.50;99.90;;;;;;5055002;28;20219;-57
2021/05/11 00:49:30;;;;;;;1999.90;999.90;;;12.50;99.90;;;;;;5054881;28;20173;-51
2021/05/11 00:51:58;;;;;;;1999.90;999.90;;;12.50;99.90;;;;;;5054903;28;20169;-57
2021/05/11 00:54:26;;;;;;;1999.90;999.90;;;12.40;99.90;;;;;;5054906;28;20303;-59
2021/05/11 00:56:54;;;;;;;1999.90;999.90;;;12.40;99.90;;;;;;5054793;28;20173;-56
2021/05/11 00:59:29;;;;;;;1999.90;999.90;;;12.50;99.90;;;;;;5054796;28;20623;-58
2021/05/11 01:01:58;;;;;;;1999.90;999.90;;;12.40;99.90;;;;;;5054673;28;20204;-58
2021/05/11 01:04:26;;;;;;;1999.90;999.90;;;12.50;99.90;;;;;;5054891;28;20173;-59
2021/05/11 01:06:54;;;;;;;1999.90;999.90;;;12.50;99.90;;;;;;5054726;28;20203;-59
2021/05/11 01:09:22;;;;;;;1999.90;999.90;;;12.50;99.90;;;;;;5054612;28;20259;-59
2021/05/11 01:11:49;;;;;;;1999.90;999.90;;;12.40;99.90;;;;;;5054678;28;20179;-56
2021/05/11 01:14:16;;;;;;;1999.90;999.90;;;12.50;99.90;;;;;;5053625;28;20640;-58
2021/05/11 01:16:44;;;;;;;1999.90;999.90;;;12.50;99.90;;;;;;5054691;28;20243;-49
2021/05/11 01:19:22;;;;;;;1999.90;999.90;;;12.40;99.90;;;;;;5054607;28;20213;-56
2021/05/11 01:24:23;;;;;;;1999.90;999.90;;;12.50;99.90;;;;;;5054442;28;20211;-47
2021/05/11 01:29:39;;;;;;;1999.90;999.90;;;12.60;99.90;;;;;;5054368;28;20643;-58
2021/05/11 01:32:39;;;;;;;1999.90;999.90;;;12.50;99.90;;;;;;5054414;28;20172;-58
2021/05/11 01:43:56;;;;;;;1999.90;999.90;;;12.50;99.90;;;;;;5054500;28;20272;-48
2021/05/11 01:51:51;;;;;;;1999.90;999.90;;;12.50;99.90;;;;;;5053945;28;20647;-59
2021/05/11 01:57:25;;;;;;;1999.90;999.90;;;12.60;99.90;;;;;;5053860;28;20165;-53
2021/05/11 02:24:39;;;;;;;1999.90;999.90;;;12.40;99.90;;;;;;5053189;28;20168;-55
2021/05/11 02:27:06;;;;;;;1999.90;999.90;;;12.40;99.90;;;;;;5053027;28;20184;-43
2021/05/11 02:29:33;;;;;;;1999.90;999.90;;;12.40;99.90;;;;;;5053227;28;20191;-46
2021/05/11 02:31:59;;;;;;;1999.90;999.90;;;12.40;99.90;;;;;;5053234;28;20169;-58
2021/05/11 02:34:26;;;;;;;1999.90;999.90;;;12.30;99.90;;;;;;5053154;28;20215;-51
2021/05/11 02:36:53;;;;;;;1999.90;999.90;;;12.40;99.90;;;;;;5053452;28;20161;-60
2021/05/11 02:39:20;;;;;;;1999.90;999.90;;;12.40;99.90;;;;;;5053213;28;20193;-57
2021/05/11 02:41:47;;;;;;;1999.90;999.90;;;12.50;99.90;;;;;;5053092;28;20258;-59
2021/05/11 02:44:15;;;;;;;1999.90;999.90;;;12.50;99.90;;;;;;5053096;28;20161;-60
2021/05/11 02:46:42;;;;;;;1999.90;999.90;;;12.50;99.90;;;;;;5052879;28;20229;-58
2021/05/11 02:49:09;;;;;;;1999.90;999.90;;;12.40;99.90;;;;;;5053017;28;20291;-60
2021/05/11 02:51:36;;;;;;;1999.90;999.90;;;12.30;99.90;;;;;;5052834;28;20263;-59
2021/05/11 02:54:03;;;;;;;1999.90;999.90;;;12.20;99.90;;;;;;5052934;28;20161;-59
2021/05/11 02:56:30;;;;;;;1999.90;999.90;;;12.20;99.90;;;;;;5052925;28;20192;-58
2021/05/11 02:58:57;;;;;;;1999.90;999.90;;;12.10;99.90;;;;;;5051550;28;20219;-59
2021/05/11 03:01:23;;;;;;;1999.90;999.90;;;12.10;99.90;;;;;;5052712;28;20197;-54
2021/05/11 03:03:50;;;;;;;1999.90;999.90;;;12.10;99.90;;;;;;5052916;28;20211;-55
2021/05/11 03:06:17;;;;;;;1999.90;999.90;;;12.20;99.90;;;;;;5052776;28;20169;-60
2021/05/11 03:08:44;;;;;;;1999.90;999.90;;;12.20;99.90;;;;;;5052780;28;20191;-56
2021/05/11 03:11:11;;;;;;;1999.90;999.90;;;12.20;99.90;;;;;;5052688;28;20200;-59
2021/05/11 03:13:38;;;;;;;1999.90;999.90;;;12.30;99.90;;;;;;5052741;28;20192;-55
2021/05/11 03:16:05;;;;;;;1999.90;999.90;;;12.30;99.90;;;;;;5052668;28;20173;-59
2021/05/11 03:18:32;;;;;;;1999.90;999.90;;;12.20;99.90;;;;;;5052711;28;20164;-60
2021/05/11 03:20:58;;;;;;;1999.90;999.90;;;12.10;99.90;;;;;;5052453;28;20208;-50
2021/05/11 03:23:25;;;;;;;1999.90;999.90;;;12.10;99.90;;;;;;5052343;28;20161;-58
2021/05/11 03:25:52;;;;;;;1999.90;999.90;;;12.20;99.90;;;;;;5052547;28;20184;-58
2021/05/11 03:28:19;;;;;;;1999.90;999.90;;;12.10;99.90;;;;;;5052152;28;20224;-44
2021/05/11 03:30:46;;;;;;;1999.90;999.90;;;12.10;99.90;;;;;;5052440;28;20173;-59
2021/05/11 03:33:13;;;;;;;1999.90;999.90;;;12.00;99.90;;;;;;5052462;28;20169;-56
2021/05/11 03:35:39;;;;;;;1999.90;999.90;;;12.00;99.90;;;;;;5052399;28;20303;-46
2021/05/11 03:38:07;;;;;;;1999.90;999.90;;;12.00;99.90;;;;;;5054862;28;20161;-59
2021/05/11 03:40:34;;;;;;;1999.90;999.90;;;11.90;99.90;;;;;;5056137;28;20560;-54
2021/05/11 03:43:13;;;;;;;1999.90;999.90;;;11.90;99.90;;;;;;5056313;28;20169;-59
2021/05/11 03:45:48;;;;;;;1999.90;999.90;;;11.80;99.90;;;;;;5056399;28;20165;-54
2021/05/11 03:48:14;;;;;;;1999.90;999.90;;;11.90;99.90;;;;;;5056129;28;20164;-50
2021/05/11 03:50:41;;;;;;;1999.90;999.90;;;11.90;99.90;;;;;;5056154;28;20165;-59
2021/05/11 03:53:08;;;;;;;1999.90;999.90;;;12.00;99.90;;;;;;5056124;28;20165;-53
2021/05/11 03:55:35;;;;;;;1999.90;999.90;;;12.00;99.90;;;;;;5056082;28;20166;-59
2021/05/11 03:58:02;;;;;;;1999.90;999.90;;;11.90;99.90;;;;;;5055974;28;20583;-60
2021/05/11 04:00:29;;;;;;;1999.90;999.90;;;11.90;99.90;;;;;;5055895;28;20674;-54
2021/05/11 04:02:55;;;;;;;1999.90;999.90;;;11.90;99.90;;;;;;5055993;28;20227;-50
2021/05/11 04:05:23;;;;;;;1999.90;999.90;;;12.00;99.90;;;;;;5055886;28;20204;-48
2021/05/11 04:07:54;;;;;;;1999.90;999.90;;;12.00;99.90;;;;;;5055801;28;20606;-56
2021/05/11 04:18:03;;;;;;;1999.90;999.90;;;11.90;99.90;;;;;;5055858;28;20505;-60
2021/05/11 04:20:30;;;;;;;1999.90;999.90;;;11.90;99.90;;;;;;5055510;28;20204;-43
2021/05/11 04:22:57;;;;;;;1999.90;999.90;;;11.90;99.90;;;;;;5055591;28;20189;-60
2021/05/11 04:25:24;;;;;;;1999.90;999.90;;;12.00;99.90;;;;;;5055484;28;20175;-60
2021/05/11 04:27:50;;;;;;;1999.90;999.90;;;12.00;99.90;;;;;;5055285;28;20235;-53
2021/05/11 04:30:19;;;;;;;1999.90;999.90;;;12.10;99.90;;;;;;5055223;28;20170;-59
2021/05/11 04:32:46;;;;;;;1999.90;999.90;;;12.10;99.90;;;;;;5055164;28;20582;-59
2021/05/11 04:35:13;;;;;;;1999.90;999.90;;;12.10;99.90;;;;;;5055146;28;20169;-59
2021/05/11 04:37:40;;;;;;;1999.90;999.90;;;12.10;99.90;;;;;;5055196;28;20161;-59
2021/05/11 04:40:08;;;;;;;1999.90;999.90;;;12.10;99.90;;;;;;5055038;28;20169;-59
2021/05/11 04:42:35;;;;;;;1999.90;999.90;;;12.20;99.90;;;;;;5054989;28;20256;-59
2021/05/11 04:45:04;;;;;;;1999.90;999.90;;;12.10;99.90;;;;;;5055021;28;20165;-54
2021/05/11 04:47:50;;;;;;;1999.90;999.90;;;12.10;99.90;;;;;;5055199;28;20165;-59
2021/05/11 04:50:24;;;;;;;1999.90;999.90;;;12.20;99.90;;;;;;5055096;28;20162;-55
2021/05/11 04:52:52;;;;;;;1999.90;999.90;;;12.20;99.90;;;;;;5055219;28;20160;-60
2021/05/11 04:55:19;;;;;;;1999.90;999.90;;;12.10;99.90;;;;;;5055057;28;20169;-60
2021/05/11 04:57:46;;;;;;;1999.90;999.90;;;12.10;99.90;;;;;;5054975;28;20635;-56
2021/05/11 05:00:15;;;;;;;1999.90;999.90;;;12.10;99.90;;;;;;5054779;28;20165;-59
2021/05/11 05:02:44;;;;;;;1999.90;999.90;;;12.00;99.90;;;;;;5054659;28;20176;-58
2021/05/11 05:05:12;;;;;;;1999.90;999.90;;;12.00;99.90;;;;;;5054650;28;20173;-56
2021/05/11 05:07:40;;;;;;;1999.90;999.90;;;12.10;99.90;;;;;;5054749;28;20267;-57
2021/05/11 05:10:09;;;;;;;1999.90;999.90;;;12.00;99.90;;;;;;5054600;28;20170;-59
2021/05/11 05:12:36;;;;;;;1999.90;999.90;;;12.00;99.90;;;;;;5054468;28;20169;-60
2021/05/11 05:15:04;;;;;;;1999.90;999.90;;;12.00;99.90;;;;;;5054484;28;20176;-47
2021/05/11 05:17:31;;;;;;;1999.90;999.90;;;11.80;99.90;;;;;;5054500;28;20562;-59
2021/05/11 05:19:58;;;;;;;1999.90;999.90;;;11.80;99.90;;;;;;5054396;28;20248;-56
2021/05/11 05:22:24;;;;;;;1999.90;999.90;;;11.80;99.90;;;;;;5054303;28;20275;-59
2021/05/11 05:24:55;;;;;;;1999.90;999.90;;;11.90;99.90;;;;;;5054339;28;20205;-58
2021/05/11 05:28:06;;;;;;;1999.90;999.90;;;11.90;99.90;;;;;;5053935;28;20227;-59
2021/05/11 05:30:12;;;;;;;1999.90;999.90;;;11.80;99.90;;;;;;5048566;28;20203;-46
2021/05/11 05:32:39;;;;;;;1999.90;999.90;;;11.40;99.90;;;;;;5054157;28;20173;-60
2021/05/11 05:35:06;;;;;;;1999.90;999.90;;;11.20;99.90;;;;;;5053918;28;20170;-55
2021/05/11 05:37:33;;;;;;;1999.90;999.90;;;11.10;99.90;;;;;;5053944;28;20173;-58
2021/05/11 05:40:03;;;;;;;1999.90;999.90;;;11.10;99.90;;;;;;5053746;28;20244;-46
2021/05/11 05:42:29;;;;;;;1999.90;999.90;;;11.00;99.90;;;;;;5053780;28;20259;-53
2021/05/11 05:44:56;;;;;;;1999.90;999.90;;;11.00;99.90;;;;;;5053671;28;20269;-47
2021/05/11 05:47:23;;;;;;;1999.90;999.90;;;11.20;99.90;;;;;;5053749;28;20620;-52
2021/05/11 05:49:58;;;;;;;1999.90;999.90;;;11.20;99.90;;;;;;5053467;28;20169;-60
2021/05/11 05:52:34;;;;;;;1999.90;999.90;;;11.20;99.90;;;;;;5053444;28;20531;-54
2021/05/11 05:55:03;;;;;;;1999.90;999.90;;;11.30;99.90;;;;;;5053263;28;20165;-60
2021/05/11 05:57:29;;;;;;;1999.90;999.90;;;11.40;99.90;;;;;;5053576;28;20173;-53
2021/05/11 05:59:56;;;;;;;1999.90;999.90;;;11.40;99.90;;;;;;5053062;28;20176;-58
2021/05/11 06:02:23;;;;;;;1999.90;999.90;;;11.50;99.90;;;;;;5053458;28;20204;-59
2021/05/11 06:04:50;;;;;;;1999.90;999.90;;;11.60;99.90;;;;;;5053676;28;20746;-56
2021/05/11 06:07:17;;;;;;;1999.90;999.90;;;11.60;99.90;;;;;;5053366;28;20650;-65
2021/05/11 06:09:45;;;;;;;1999.90;999.90;;;11.60;99.90;;;;;;5053308;28;20166;-44
2021/05/11 06:12:23;;;;;;;1999.90;999.90;;;11.80;99.90;;;;;;5053394;28;20172;-46
2021/05/11 06:17:13;;;;;;;1999.90;999.90;;;12.00;99.90;;;;;;5049893;28;20191;-50
2021/05/11 06:17:49;;;;;;;1999.90;999.90;;;12.20;99.90;;;;;;5052494;28;20173;-49
2021/05/11 06:20:16;;;;;;;1999.90;999.90;;;12.50;99.90;;;;;;5052150;28;20635;-47
2021/05/11 06:22:43;;;;;;;1999.90;999.90;;;12.60;99.90;;;;;;5052571;28;20533;-47
2021/05/11 06:25:11;;;;;;;1999.90;999.90;;;12.60;99.90;;;;;;5052415;28;20298;-44
2021/05/11 06:27:38;;;;;;;1999.90;999.90;;;12.40;99.90;;;;;;5052468;28;20251;-45
2021/05/11 06:30:05;;;;;;;1999.90;999.90;;;12.20;99.90;;;;;;5052872;28;20236;-45
2021/05/11 06:32:32;;;;;;;1999.90;999.90;;;11.90;99.90;;;;;;5052532;28;20168;-52
2021/05/11 06:35:05;;;;;;;1999.90;999.90;;;11.90;99.90;;;;;;5052745;28;20196;-45
2021/05/11 06:37:32;;;;;;;1999.90;999.90;;;12.10;99.90;;;;;;5052813;28;20223;-45
2021/05/11 06:39:59;;;;;;;1999.90;999.90;;;12.30;99.90;;;;;;5052435;28;20181;-46
2021/05/11 06:42:28;;;;;;;1999.90;999.90;;;12.40;99.90;;;;;;5052438;28;20247;-46
2021/05/11 06:45:59;;;;;;;1999.90;999.90;;;12.00;99.90;;;;;;5053012;28;20264;-46
2021/05/11 06:48:09;;;;;;;1999.90;999.90;;;12.00;99.90;;;;;;5052224;28;20639;-48
2021/05/11 06:50:39;;;;;;;1999.90;999.90;;;11.90;99.90;;;;;;5052390;28;20168;-47
2021/05/11 06:53:12;;;;;;;1999.90;999.90;;;11.90;99.90;;;;;;5052082;28;20556;-45
2021/05/11 06:55:42;;;;;;;1999.90;999.90;;;11.90;99.90;;;;;;5051404;28;20164;-45
2021/05/11 06:58:10;;;;;;;1999.90;999.90;;;12.00;99.90;;;;;;5051085;28;20177;-49
2021/05/11 07:00:42;;;;;;;1999.90;999.90;;;12.00;99.90;;;;;;5052348;28;20248;-43
2021/05/11 07:03:08;;;;;;;1999.90;999.90;;;12.10;99.90;;;;;;5052479;28;20629;-46
2021/05/11 07:05:36;;;;;;;1999.90;999.90;;;12.20;99.90;;;;;;5052308;28;20168;-57
2021/05/11 07:10:34;;;;;;;1999.90;999.90;;;12.20;99.90;;;;;;5051944;28;20181;-45
2021/05/11 07:13:11;;;;;;;1999.90;999.90;;;12.40;99.90;;;;;;5054393;28;20632;-44
2021/05/11 07:15:47;;;;;;;1999.90;999.90;;;12.50;99.90;;;;;;5056824;28;20167;-50
2021/05/11 07:18:25;;;;;;;1999.90;999.90;;;12.60;99.90;;;;;;5056421;28;20675;-49
2021/05/11 07:21:00;;;;;;;1999.90;999.90;;;12.90;99.90;;;;;;5056120;28;20195;-45
2021/05/11 07:23:28;;;;;;;1999.90;999.90;;;13.20;99.90;;;;;;5056368;28;20250;-46
2021/05/11 07:31:12;;;;;;;1999.90;999.90;;;13.80;99.90;;;;;;5056336;28;20248;-44
2021/05/11 07:33:44;;;;;;;1999.90;999.90;;;13.70;99.90;;;;;;5056053;28;20196;-45
2021/05/11 07:36:12;;;;;;;1999.90;999.90;;;13.60;99.90;;;;;;5056039;28;20165;-47
2021/05/11 07:38:40;;;;;;;1999.90;999.90;;;13.70;99.90;;;;;;5055876;28;20225;-45
2021/05/11 07:41:07;;;;;;;1999.90;999.90;;;13.70;99.90;;;;;;5056081;28;20296;-38
2021/05/11 07:43:40;;;;;;;1999.90;999.90;;;13.70;99.90;;;;;;5055640;28;20173;-42
2021/05/11 07:46:23;;;;;;;1999.90;999.90;;;13.80;99.90;;;;;;5056153;28;20169;-47
2021/05/11 08:02:01;;;;;;;1999.90;999.90;;;14.30;99.90;;;;;;5055718;28;20206;-54
2021/05/11 08:04:40;;;;;;;1999.90;999.90;;;14.30;99.90;;;;;;5055534;28;20240;-50
2021/05/11 08:21:50;;;;;;;1999.90;999.90;;;16.10;99.90;;;;;;5055104;28;20164;-49
2021/05/11 08:28:52;;;;;;;1999.90;999.90;;;16.60;99.90;;;;;;5054936;28;20224;-47
2021/05/11 08:31:19;;;;;;;1999.90;999.90;;;16.50;99.90;;;;;;5055304;28;20196;-59
2021/05/11 08:33:45;;;;;;;1999.90;999.90;;;16.50;99.90;;;;;;5054170;28;20175;-50
2021/05/11 08:36:12;;;;;;;1999.90;999.90;;;16.70;99.90;;;;;;5055205;28;20165;-52
2021/05/11 08:38:39;;;;;;;1999.90;999.90;;;16.90;99.90;;;;;;5055084;28;20513;-50
2021/05/11 08:41:06;;;;;;;1999.90;999.90;;;17.20;99.90;;;;;;5054953;28;20567;-49
2021/05/11 08:43:37;;;;;;;1999.90;999.90;;;17.20;99.90;;;;;;5054969;28;20241;-50
2021/05/11 08:46:05;;;;;;;1999.90;999.90;;;17.20;99.90;;;;;;5054903;28;20219;-50
2021/05/11 08:48:36;;;;;;;1999.90;999.90;;;17.40;99.90;;;;;;5054762;28;20165;-52
2021/05/11 09:05:20;;;;;;;1999.90;999.90;;;18.10;99.30;;;;;;5054565;28;20165;-45
2021/05/11 09:27:47;;;;;;;1999.90;999.90;;;19.20;96.80;;;;;;5054038;28;20192;-45
2021/05/11 09:33:21;;;;;;;1999.90;999.90;;;19.80;95.90;;;;;;5041854;28;20181;-46
2021/05/11 09:59:19;;;;;;;1999.90;999.90;;;22.90;82.40;;;;;;5053501;28;20215;-40
2021/05/11 10:46:57;;;;;;;1999.90;999.90;;;24.00;66.10;;;;;;5051197;28;20161;-55
2021/05/11 10:49:37;;;;;;;1999.90;999.90;;;24.30;66.40;;;;;;5052357;28;20169;-47
2021/05/11 10:55:00;;;;;;;1999.90;999.90;;;23.80;59.90;;;;;;5052235;28;20164;-50
2021/05/11 10:57:37;;;;;;;1999.90;999.90;;;23.60;62.20;;;;;;5051528;28;20727;-48
2021/05/11 11:00:29;;;;;;;1999.90;999.90;;;23.70;62.00;;;;;;5052579;28;20489;-49
2021/05/11 11:03:27;;;;;;;1999.90;999.90;;;24.10;62.10;;;;;;5052553;28;20169;-49
2021/05/11 11:05:56;;;;;;;1999.90;999.90;;;24.50;61.20;;;;;;5050495;28;20157;-42
2021/05/11 11:08:43;;;;;;;1999.90;999.90;;;24.40;58.00;;;;;;5052173;28;20176;-46
2021/05/11 11:11:20;;;;;;;1999.90;999.90;;;24.60;59.70;;;;;;5052327;28;20164;-43
2021/05/11 11:13:53;;;;;;;1999.90;999.90;;;24.70;59.20;;;;;;5052074;28;20565;-45
2021/05/11 11:16:23;;;;;;;1999.90;999.90;;;25.40;58.30;;;;;;5052495;28;20259;-53
2021/05/11 11:18:50;;;;;;;1999.90;999.90;;;25.70;56.80;;;;;;5052480;28;20177;-48
2021/05/11 11:23:58;;;;;;;1999.90;999.90;;;25.80;53.90;;;;;;5052375;28;20158;-54
2021/05/11 11:26:29;;;;;;;1999.90;999.90;;;25.90;53.60;;;;;;5052317;28;20177;-46
2021/05/11 11:29:06;;;;;;;1999.90;999.90;;;26.00;53.60;;;;;;5051959;28;20248;-45
2021/05/11 11:31:37;;;;;;;1999.90;999.90;;;25.80;51.30;;;;;;5052226;28;20161;-48
2021/05/11 11:34:22;;;;;;;1999.90;999.90;;;25.90;51.70;;;;;;5052356;28;20244;-60
2021/05/11 11:37:02;;;;;;;1999.90;999.90;;;25.70;52.00;;;;;;5052092;28;20207;-45
2021/05/11 11:39:37;;;;;;;1999.90;999.90;;;25.70;50.30;;;;;;5052028;28;20240;-46
2021/05/11 11:42:06;;;;;;;1999.90;999.90;;;25.80;51.60;;;;;;5051029;28;20201;-52
2021/05/11 11:44:37;;;;;;;1999.90;999.90;;;25.80;51.40;;;;;;5052278;28;20169;-44
2021/05/11 11:47:11;;;;;;;1999.90;999.90;;;25.80;52.40;;;;;;5052244;28;20169;-57
2021/05/11 11:49:45;;;;;;;1999.90;999.90;;;26.00;51.10;;;;;;5052350;28;20206;-64
2021/05/11 11:53:06;;;;;;;1999.90;999.90;;;26.00;50.20;;;;;;5052218;28;20158;-52
2021/05/11 11:57:55;;;;;;;1999.90;999.90;;;25.80;49.50;;;;;;5052747;28;20172;-49
2021/05/11 12:00:29;;;;;;;1999.90;999.90;;;25.60;49.30;;;;;;5055948;28;20176;-43
2021/05/11 12:03:06;;;;;;;1999.90;999.90;;;25.30;51.70;;;;;;5055710;28;20255;-41
2021/05/11 12:05:38;;;;;;;1999.90;999.90;;;25.50;51.60;;;;;;5056005;28;20219;-46
2021/05/11 12:10:56;;;;;;;1999.90;999.90;;;25.60;50.60;;;;;;5055468;28;20161;-48
2021/05/11 12:13:34;;;;;;;1999.90;999.90;;;25.70;51.80;;;;;;5055716;28;20169;-50
2021/05/11 12:16:17;;;;;;;1999.90;999.90;;;25.60;50.90;;;;;;5055663;28;20189;-51
2021/05/11 12:19:09;;;;;;;1999.90;999.90;;;25.60;51.40;;;;;;5055929;28;20565;-47
2021/05/11 12:21:37;;;;;;;1999.90;999.90;;;25.60;52.00;;;;;;5055833;28;20219;-50
2021/05/11 12:24:10;;;;;;;1999.90;999.90;;;25.70;52.10;;;;;;5054399;28;20670;-44
2021/05/11 12:26:45;;;;;;;1999.90;999.90;;;25.70;52.90;;;;;;5055609;28;20252;-46
2021/05/11 12:29:19;;;;;;;1999.90;999.90;;;25.80;53.70;;;;;;5054080;28;20270;-45
2021/05/11 12:31:50;;;;;;;1999.90;999.90;;;26.00;52.70;;;;;;5055680;28;20620;-45
2021/05/11 12:34:24;;;;;;;1999.90;999.90;;;26.20;51.50;;;;;;5055483;28;20166;-45
2021/05/11 12:37:00;;;;;;;1999.90;999.90;;;26.40;51.00;;;;;;5055587;28;20603;-47
2021/05/11 12:39:36;;;;;;;1999.90;999.90;;;26.30;51.20;;;;;;5053848;28;20173;-47
2021/05/11 12:42:21;;;;;;;1999.90;999.90;;;26.30;51.70;;;;;;5038185;28;20209;-45
2021/05/11 12:45:02;;;;;;;1999.90;999.90;;;26.20;51.00;;;;;;5055061;28;20268;-44
2021/05/11 12:47:42;;;;;;;1999.90;999.90;;;25.90;50.30;;;;;;5055632;28;20203;-44
2021/05/11 12:50:20;;;;;;;1999.90;999.90;;;25.70;50.40;;;;;;5055224;28;20196;-44
2021/05/11 12:52:50;;;;;;;1999.90;999.90;;;25.50;50.70;;;;;;5055013;28;20256;-45
2021/05/11 12:58:39;;;;;;;1999.90;999.90;;;25.60;51.70;;;;;;5054998;28;20630;-44
2021/05/11 13:01:32;;;;;;;1999.90;999.90;;;25.80;51.10;;;;;;5054774;28;20205;-49
2021/05/11 13:13:38;;;;;;;1999.90;999.90;;;25.90;51.60;;;;;;5053825;28;20196;-44
2021/05/11 13:16:10;;;;;;;1999.90;999.90;;;25.80;51.60;;;;;;5054626;28;20168;-44
2021/05/11 13:21:52;;;;;;;1999.90;999.90;;;25.80;51.80;;;;;;5054802;28;20682;-45
2021/05/11 13:27:48;;;;;;;1999.90;999.90;;;25.80;51.50;;;;;;5054230;28;20207;-43
2021/05/11 13:32:42;;;;;;;1999.90;999.90;;;25.60;52.60;;;;;;5054512;28;20183;-45
2021/05/11 13:35:09;;;;;;;1999.90;999.90;;;25.50;53.70;;;;;;5053222;28;20195;-48
2021/05/11 13:37:35;;;;;;;1999.90;999.90;;;25.50;54.10;;;;;;5054295;28;20161;-45
2021/05/11 13:40:05;;;;;;;1999.90;999.90;;;25.40;54.80;;;;;;5054309;28;20647;-43
2021/05/11 13:42:32;;;;;;;1999.90;999.90;;;25.40;54.30;;;;;;5053937;28;20205;-45
2021/05/11 13:44:59;;;;;;;1999.90;999.90;;;25.20;55.10;;;;;;5054083;28;20234;-43
2021/05/11 13:47:26;;;;;;;1999.90;999.90;;;25.20;55.20;;;;;;5054098;28;20191;-43
2021/05/11 13:49:57;;;;;;;1999.90;999.90;;;25.10;55.60;;;;;;5054054;28;20259;-46
2021/05/11 13:52:24;;;;;;;1999.90;999.90;;;25.00;56.00;;;;;;5054061;28;20266;-44
2021/05/11 13:54:56;;;;;;;1999.90;999.90;;;24.90;56.90;;;;;;5053684;28;20323;-42
2021/05/11 14:01:33;;;;;;;1999.90;999.90;;;24.80;56.80;;;;;;5053644;28;20215;-41
2021/05/11 14:03:02;;;;;;;1999.90;999.90;;;24.80;58.30;;;;;;5053857;28;20215;-42
2021/05/11 14:05:29;;;;;;;1999.90;999.90;;;24.70;57.30;;;;;;5053497;28;20570;-43
2021/05/11 14:07:56;;;;;;;1999.90;999.90;;;24.70;57.60;;;;;;5053660;28;20559;-43
2021/05/11 14:10:23;;;;;;;1999.90;999.90;;;24.70;58.40;;;;;;5053622;28;20234;-42
2021/05/11 14:12:50;;;;;;;1999.90;999.90;;;24.50;58.80;;;;;;5054164;28;20630;-43
2021/05/11 14:15:17;;;;;;;1999.90;999.90;;;24.40;58.60;;;;;;5053489;28;20207;-41
2021/05/11 14:17:44;;;;;;;1999.90;999.90;;;24.40;59.10;;;;;;5053659;28;20180;-41
2021/05/11 14:20:11;;;;;;;1999.90;999.90;;;24.20;60.30;;;;;;5053458;28;20169;-43
2021/05/11 14:22:38;;;;;;;1999.90;999.90;;;24.20;60.10;;;;;;5052866;28;20724;-43
2021/05/11 14:25:06;;;;;;;1999.90;999.90;;;24.10;61.00;;;;;;5052954;28;20244;-45
2021/05/11 14:27:34;;;;;;;1999.90;999.90;;;24.10;61.10;;;;;;5053073;28;20228;-42
2021/05/11 14:30:00;;;;;;;1999.90;999.90;;;24.00;61.20;;;;;;5053161;28;20176;-42
2021/05/11 14:32:27;;;;;;;1999.90;999.90;;;24.00;60.70;;;;;;5053149;28;20177;-42
2021/05/11 14:34:54;;;;;;;1999.90;999.90;;;23.90;61.40;;;;;;5053225;28;20169;-42
2021/05/11 14:37:21;;;;;;;1999.90;999.90;;;23.90;61.20;;;;;;5053131;28;20173;-44
2021/05/11 14:39:48;;;;;;;1999.90;999.90;;;23.80;62.00;;;;;;5051902;28;20262;-42
2021/05/11 14:42:15;;;;;;;1999.90;999.90;;;23.70;62.60;;;;;;5052954;28;20201;-42
2021/05/11 14:44:42;;;;;;;1999.90;999.90;;;23.70;62.40;;;;;;5052837;28;20242;-44
2021/05/11 14:47:08;;;;;;;1999.90;999.90;;;23.60;63.20;;;;;;5052763;28;20187;-44
2021/05/11 14:49:35;;;;;;;1999.90;999.90;;;23.60;63.00;;;;;;5053025;28;20169;-44
2021/05/11 14:52:03;;;;;;;1999.90;999.90;;;23.50;63.00;;;;;;5052883;28;20169;-43
2021/05/11 14:54:30;;;;;;;1999.90;999.90;;;23.50;63.80;;;;;;5053094;28;20597;-42
2021/05/11 14:56:57;;;;;;;1999.90;999.90;;;23.50;64.20;;;;;;5053034;28;20169;-42
2021/05/11 14:59:24;;;;;;;1999.90;999.90;;;23.40;64.30;;;;;;5052813;28;20191;-42
2021/05/11 15:01:50;;;;;;;1999.90;999.90;;;23.30;64.90;;;;;;5052685;28;20675;-44
2021/05/11 15:04:17;;;;;;;1999.90;999.90;;;23.20;65.10;;;;;;5052839;28;20165;-43
2021/05/11 15:06:44;;;;;;;1999.90;999.90;;;23.10;65.70;;;;;;5052770;28;20199;-43
2021/05/11 15:09:12;;;;;;;1999.90;999.90;;;23.00;65.50;;;;;;5051501;28;20173;-42
2021/05/11 15:11:39;;;;;;;1999.90;999.90;;;22.90;66.70;;;;;;5052740;28;20215;-43
2021/05/11 15:14:06;;;;;;;1999.90;999.90;;;22.80;66.10;;;;;;5052679;28;20161;-43
2021/05/11 15:16:38;;;;;;;1999.90;999.90;;;22.70;67.00;;;;;;5052722;28;20640;-43
2021/05/11 15:19:06;;;;;;;1999.90;999.90;;;22.60;67.80;;;;;;5052574;28;20157;-43
2021/05/11 15:21:34;;;;;;;1999.90;999.90;;;22.50;68.70;;;;;;5052771;28;20212;-42
2021/05/11 15:24:01;;;;;;;1999.90;999.90;;;22.50;69.90;;;;;;5052374;28;20196;-42
2021/05/11 15:26:31;;;;;;;1999.90;999.90;;;22.20;71.30;;;;;;5052568;28;20165;-42
2021/05/11 15:28:58;;;;;;;1999.90;999.90;;;22.20;71.00;;;;;;5052293;28;20232;-44
2021/05/11 15:31:25;;;;;;;1999.90;999.90;;;22.00;71.80;;;;;;5052519;28;20201;-43
2021/05/11 15:33:55;;;;;;;1999.90;999.90;;;21.90;72.80;;;;;;5054588;28;20565;-46
2021/05/11 15:36:25;;;;;;;1999.90;999.90;;;21.80;72.80;;;;;;5056517;28;20203;-44
2021/05/11 15:38:52;;;;;;;1999.90;999.90;;;21.60;73.80;;;;;;5056460;28;20219;-41
2021/05/11 15:41:19;;;;;;;1999.90;999.90;;;21.50;74.70;;;;;;5056076;28;20288;-43
2021/05/11 15:43:46;;;;;;;1999.90;999.90;;;21.40;74.80;;;;;;5056418;28;20593;-44
2021/05/11 15:46:13;;;;;;;1999.90;999.90;;;21.30;75.60;;;;;;5056314;28;20219;-43
2021/05/11 15:48:39;;;;;;;1999.90;999.90;;;21.10;77.10;;;;;;5056273;28;20266;-44
2021/05/11 15:51:06;;;;;;;1999.90;999.90;;;21.00;77.20;;;;;;5056346;28;20624;-43
2021/05/11 15:53:33;;;;;;;1999.90;999.90;;;20.90;78.30;;;;;;5056260;28;20181;-43
2021/05/11 15:56:00;;;;;;;1999.90;999.90;;;20.80;79.10;;;;;;5056162;28;20633;-42
2021/05/11 15:58:27;;;;;;;1999.90;999.90;;;20.60;80.30;;;;;;5054835;28;20181;-43
2021/05/11 16:00:54;;;;;;;1999.90;999.90;;;20.40;81.40;;;;;;5055945;28;20184;-44
2021/05/11 16:03:21;;;;;;;1999.90;999.90;;;20.30;82.60;;;;;;5056150;28;20260;-44
2021/05/11 16:05:48;;;;;;;1999.90;999.90;;;20.10;83.70;;;;;;5056129;28;20256;-43
2021/05/11 16:08:18;;;;;;;1999.90;999.90;;;20.00;84.50;;;;;;5055815;28;20646;-45